Time;durP1;ratioP1;P1;durP2;ratioP2;P2;SDS_P1;SDS_P2;PMS_P1;PMS_P2;Temp;Humidity;BMP_temperature;BMP_pressure;BME280_temperature;BME280_humidity;BME280_pressure;Samples;Min_cycle;Max_cycle;Signal;HPM_P1;HPM_P2
2023/01/28 00:01:59;;;;;;;531.20;164.10;;;;;;;-5.53;100.00;97972.89;107072;1275;22643;-68
2023/01/28 00:04:29;;;;;;;381.60;117.30;;;;;;;-5.53;100.00;97963.16;106199;1275;1016251;-70
2023/01/28 00:07:01;;;;;;;203.30;69.10;;;;;;;-5.53;100.00;97957.80;106276;1275;1003594;-69
2023/01/28 00:09:30;;;;;;;134.40;45.90;;;;;;;-5.54;100.00;97952.91;106968;1275;25505;-68
2023/01/28 00:12:00;;;;;;;179.80;59.10;;;;;;;-5.56;100.00;97943.23;106962;1275;24228;-68
2023/01/28 00:14:29;;;;;;;119.90;42.30;;;;;;;-5.58;100.00;97945.19;106234;1275;1002475;-67
2023/01/28 00:16:58;;;;;;;78.30;29.50;;;;;;;-5.60;100.00;97943.20;107036;1275;25369;-69
2023/01/28 00:19:28;;;;;;;50.00;21.00;;;;;;;-5.61;100.00;97944.02;106222;1275;1002548;-67
2023/01/28 00:21:58;;;;;;;45.80;19.70;;;;;;;-5.62;100.00;97939.02;106968;1275;22457;-66
2023/01/28 00:24:35;;;;;;;175.90;55.50;;;;;;;-5.63;100.00;97934.73;106901;1275;26584;-70
2023/01/28 00:27:04;;;;;;;314.90;89.70;;;;;;;-5.64;100.00;97929.89;106243;1275;1003517;-68
2023/01/28 00:29:34;;;;;;;371.90;113.70;;;;;;;-5.65;100.00;97928.02;106949;1275;26623;-69
2023/01/28 00:32:03;;;;;;;280.90;92.10;;;;;;;-5.67;100.00;97925.31;107023;1275;22524;-68
2023/01/28 00:34:32;;;;;;;349.10;108.30;;;;;;;-5.67;100.00;97922.55;106943;1275;22596;-68
2023/01/28 00:37:01;;;;;;;242.20;75.40;;;;;;;-5.69;100.00;97924.13;106249;1275;1003278;-69
2023/01/28 00:39:33;;;;;;;180.00;54.20;;;;;;;-5.71;100.00;97918.48;107006;1275;23884;-68
2023/01/28 00:42:07;;;;;;;118.30;38.20;;;;;;;-5.73;100.00;97915.13;106995;1275;24045;-68
2023/01/28 00:44:38;;;;;;;70.90;25.90;;;;;;;-5.75;100.00;97915.63;106848;1275;23122;-70
2023/01/28 00:47:07;;;;;;;80.20;29.10;;;;;;;-5.76;100.00;97913.40;106964;1275;25423;-68
2023/01/28 00:49:36;;;;;;;95.90;30.40;;;;;;;-5.77;100.00;97909.77;106931;1275;26818;-68
2023/01/28 00:52:06;;;;;;;67.80;24.50;;;;;;;-5.76;100.00;97907.27;106138;1275;1003053;-68
2023/01/28 00:54:41;;;;;;;53.50;20.20;;;;;;;-5.77;100.00;97901.17;107002;1276;25442;-68
2023/01/28 00:57:11;;;;;;;41.50;17.70;;;;;;;-5.77;100.00;97893.46;106266;1275;1002968;-69
2023/01/28 00:59:41;;;;;;;37.70;16.00;;;;;;;-5.77;100.00;97885.02;106178;1275;1003695;-68
2023/01/28 01:02:12;;;;;;;33.60;13.90;;;;;;;-5.76;100.00;97883.36;106234;1276;1003272;-67
2023/01/28 01:04:53;;;;;;;38.80;15.80;;;;;;;-5.76;100.00;97876.21;106982;1275;25685;-68
2023/01/28 01:07:30;;;;;;;32.90;14.40;;;;;;;-5.77;100.00;97849.04;106209;1275;1003111;-68
2023/01/28 01:10:00;;;;;;;32.80;13.60;;;;;;;-5.76;100.00;97818.13;106216;1276;1003742;-68
2023/01/28 01:12:30;;;;;;;26.20;13.10;;;;;;;-5.77;100.00;97814.13;106928;1275;24259;-67
2023/01/28 01:15:01;;;;;;;31.00;13.00;;;;;;;-5.78;100.00;97807.00;106261;1275;1003359;-68
2023/01/28 01:17:31;;;;;;;28.10;13.10;;;;;;;-5.78;100.00;97803.75;106912;1275;25323;-68
2023/01/28 01:20:00;;;;;;;28.10;11.50;;;;;;;-5.79;100.00;97803.61;106892;1275;22928;-70
2023/01/28 01:22:32;;;;;;;25.50;11.20;;;;;;;-5.80;100.00;97786.28;106877;1275;25471;-68
2023/01/28 01:25:03;;;;;;;41.50;17.30;;;;;;;-5.80;100.00;97774.58;106331;1275;1003616;-68
2023/01/28 01:27:33;;;;;;;74.70;27.90;;;;;;;-5.81;100.00;97768.80;107036;1275;22581;-68
2023/01/28 01:30:02;;;;;;;97.10;37.20;;;;;;;-5.81;100.00;97767.29;106971;1275;25420;-66
2023/01/28 01:32:33;;;;;;;104.30;38.40;;;;;;;-5.81;100.00;97768.17;106210;1275;1003702;-70
2023/01/28 01:35:05;;;;;;;65.90;25.00;;;;;;;-5.83;100.00;97763.04;106980;1275;22742;-69
2023/01/28 01:37:36;;;;;;;198.50;60.20;;;;;;;-5.83;100.00;97759.56;107032;1275;25342;-67
2023/01/28 01:40:06;;;;;;;86.10;34.80;;;;;;;-5.84;100.00;97759.82;106987;1275;26494;-67
2023/01/28 01:42:35;;;;;;;150.80;47.00;;;;;;;-5.86;100.00;97756.10;107025;1275;22477;-69
2023/01/28 01:45:06;;;;;;;79.10;27.20;;;;;;;-5.87;100.00;97755.29;106147;1275;1003048;-69
2023/01/28 01:47:45;;;;;;;183.30;47.90;;;;;;;-5.88;100.00;97751.04;107005;1275;25296;-68
2023/01/28 01:50:35;;;;;;;114.50;35.00;;;;;;;-5.91;100.00;97753.34;106249;1275;1003811;-70
2023/01/28 01:53:09;;;;;;;145.60;42.30;;;;;;;-5.94;100.00;97760.54;107021;1275;25255;-68
2023/01/28 01:55:40;;;;;;;322.90;86.70;;;;;;;-5.95;100.00;97758.23;106948;1275;25288;-68
2023/01/28 01:58:12;;;;;;;239.00;71.80;;;;;;;-5.96;100.00;97763.39;106124;1275;1003413;-69
2023/01/28 02:00:44;;;;;;;213.50;69.60;;;;;;;-5.97;100.00;97763.61;106161;1275;1003165;-67
2023/01/28 02:03:16;;;;;;;123.30;44.40;;;;;;;-5.96;100.00;97756.21;106901;1275;26611;-70
2023/01/28 02:05:44;;;;;;;157.50;51.60;;;;;;;-5.96;100.00;97754.91;106868;1275;24251;-71
2023/01/28 02:08:20;;;;;;;150.00;47.50;;;;;;;-5.95;100.00;97751.36;106155;1275;1005177;-68
2023/01/28 02:10:55;;;;;;;185.90;52.70;;;;;;;-5.96;100.00;97742.35;106997;1275;25309;-69
2023/01/28 02:13:26;;;;;;;227.60;62.60;;;;;;;-5.97;100.00;97736.50;106901;1275;24241;-68
2023/01/28 02:15:55;;;;;;;509.60;148.80;;;;;;;-5.98;100.00;97742.23;106328;1275;1003630;-69
2023/01/28 02:18:24;;;;;;;414.80;118.90;;;;;;;-6.00;100.00;97737.93;106951;1275;26153;-69
2023/01/28 02:21:06;;;;;;;206.20;68.80;;;;;;;-6.03;100.00;97737.34;106903;1275;22515;-68
2023/01/28 02:23:58;;;;;;;447.90;129.30;;;;;;;-6.07;100.00;97729.42;106260;1276;1005375;-68
2023/01/28 02:27:15;;;;;;;324.00;97.70;;;;;;;-6.12;100.00;97729.45;107021;1275;22588;-68
2023/01/28 02:29:57;;;;;;;177.10;58.20;;;;;;;-6.19;100.00;97726.98;106046;1276;1003273;-69
2023/01/28 02:32:36;;;;;;;158.90;50.00;;;;;;;-6.23;100.00;97729.92;106841;1276;24221;-70
2023/01/28 02:35:09;;;;;;;169.80;51.80;;;;;;;-6.25;100.00;97730.48;106762;1276;207883;-67
2023/01/28 02:37:57;;;;;;;144.00;47.20;;;;;;;-6.28;100.00;97735.80;106882;1276;22529;-68
2023/01/28 02:40:33;;;;;;;121.80;42.40;;;;;;;-6.33;100.00;97740.70;106125;1276;1003633;-70
2023/01/28 02:43:01;;;;;;;124.20;45.90;;;;;;;-6.36;100.00;97739.22;106861;1276;24260;-68
2023/01/28 02:48:22;;;;;;;64.10;24.70;;;;;;;-6.42;100.00;97737.30;106100;1276;1003268;-69
2023/01/28 02:50:59;;;;;;;52.10;20.10;;;;;;;-6.45;100.00;97744.67;106046;1276;1003266;-72
2023/01/28 02:53:40;;;;;;;43.00;16.50;;;;;;;-6.48;100.00;97741.73;106029;1276;1002936;-71
2023/01/28 02:56:34;;;;;;;39.10;17.10;;;;;;;-6.51;100.00;97743.52;106879;1276;22659;-69
2023/01/28 02:59:30;;;;;;;49.00;19.50;;;;;;;-6.51;100.00;97739.52;106953;1276;25444;-68
2023/01/28 03:02:19;;;;;;;72.70;30.50;;;;;;;-6.52;100.00;97737.67;106898;1276;22655;-68
2023/01/28 03:04:57;;;;;;;55.50;22.10;;;;;;;-6.52;100.00;97736.82;106169;1276;1002956;-69
2023/01/28 03:07:28;;;;;;;75.50;27.70;;;;;;;-6.54;100.00;97737.27;106134;1276;1003027;-69
2023/01/28 03:10:01;;;;;;;44.00;20.20;;;;;;;-6.55;100.00;97735.42;106903;1276;22571;-68
2023/01/28 03:36:46;;;;;;;34.60;14.50;;;;;;;-6.68;100.00;97708.73;107048;1275;22642;-67
2023/01/28 03:39:47;;;;;;;33.70;13.30;;;;;;;-6.69;100.00;97708.33;106784;1275;23790;-70
2023/01/28 03:42:17;;;;;;;32.30;12.80;;;;;;;-6.71;100.00;97712.11;106921;1275;22534;-71
2023/01/28 03:45:15;;;;;;;38.80;15.50;;;;;;;-6.71;100.00;97694.64;106277;1275;1004001;-68
2023/01/28 03:47:49;;;;;;;49.50;17.20;;;;;;;-6.71;100.00;97696.39;107081;1275;25516;-69
2023/01/28 03:50:20;;;;;;;40.40;16.50;;;;;;;-6.72;100.00;97699.29;107037;1275;23966;-69
2023/01/28 03:53:12;;;;;;;32.00;13.90;;;;;;;-6.73;100.00;97699.49;107053;1275;22586;-69
2023/01/28 03:55:55;;;;;;;46.60;17.60;;;;;;;-6.74;100.00;97692.23;107133;1275;25585;-68
2023/01/28 03:58:26;;;;;;;333.70;74.80;;;;;;;-6.74;100.00;97694.02;107009;1275;22573;-69
2023/01/28 04:00:55;;;;;;;190.10;52.10;;;;;;;-6.74;100.00;97696.77;106935;1275;22762;-68
2023/01/28 04:03:30;;;;;;;94.60;29.70;;;;;;;-6.74;100.00;97692.58;107077;1275;25419;-68
2023/01/28 04:06:04;;;;;;;39.90;16.90;;;;;;;-6.73;100.00;97690.05;106952;1275;24312;-67
2023/01/28 04:08:59;;;;;;;47.00;16.50;;;;;;;-6.74;100.00;97682.75;106830;1275;24343;-68
2023/01/28 04:11:32;;;;;;;39.30;16.80;;;;;;;-6.75;100.00;97679.15;106297;1275;1004175;-68
2023/01/28 04:14:14;;;;;;;27.90;12.50;;;;;;;-6.76;100.00;97678.74;107060;1275;23899;-68
2023/01/28 04:16:53;;;;;;;26.60;11.90;;;;;;;-6.77;100.00;97678.12;106973;1275;22575;-69
2023/01/28 04:19:37;;;;;;;26.60;12.90;;;;;;;-6.77;100.00;97677.20;106991;1275;26494;-69
2023/01/28 04:22:31;;;;;;;29.30;11.30;;;;;;;-6.76;100.00;97671.05;106271;1275;1003721;-70
2023/01/28 04:25:02;;;;;;;25.70;10.80;;;;;;;-6.75;100.00;97669.89;106312;1275;1003104;-69
2023/01/28 04:27:33;;;;;;;30.20;13.10;;;;;;;-6.74;100.00;97667.19;106222;1275;1014493;-72
2023/01/28 04:30:30;;;;;;;34.80;14.30;;;;;;;-6.72;100.00;97660.02;106348;1275;1003193;-70
2023/01/28 04:33:13;;;;;;;30.80;14.60;;;;;;;-6.70;100.00;97656.20;106973;1275;25671;-69
2023/01/28 04:36:03;;;;;;;51.90;18.70;;;;;;;-6.68;100.00;97655.98;105909;1275;1003564;-70
2023/01/28 04:38:52;;;;;;;94.70;33.00;;;;;;;-6.64;100.00;97648.73;106731;1275;25252;-69
2023/01/28 04:41:41;;;;;;;69.30;24.00;;;;;;;-6.62;100.00;97643.09;107078;1275;25515;-68
2023/01/28 04:44:27;;;;;;;54.60;20.90;;;;;;;-6.59;100.00;97640.09;106190;1275;1003521;-68
2023/01/28 04:47:19;;;;;;;44.40;17.20;;;;;;;-6.57;100.00;97640.29;106140;1275;1004603;-68
2023/01/28 04:50:09;;;;;;;59.20;20.40;;;;;;;-6.57;100.00;97632.70;106377;1275;1003307;-67
2023/01/28 04:52:59;;;;;;;130.20;41.00;;;;;;;-6.57;100.00;97624.99;106972;1253;22530;-68
2023/01/28 04:55:47;;;;;;;124.90;38.00;;;;;;;-6.56;100.00;97629.16;106224;1267;1003816;-69
2023/01/28 04:58:16;;;;;;;180.40;53.20;;;;;;;-6.56;100.00;97627.55;106265;1275;1003577;-69
2023/01/28 05:00:46;;;;;;;94.60;32.20;;;;;;;-6.54;100.00;97628.48;107055;1275;25641;-69
2023/01/28 05:03:16;;;;;;;149.10;45.40;;;;;;;-6.53;100.00;97630.33;105893;1275;1003073;-69
2023/01/28 05:05:45;;;;;;;134.70;40.60;;;;;;;-6.53;100.00;97629.55;105912;1275;1003380;-69
2023/01/28 05:08:22;;;;;;;61.10;23.70;;;;;;;-6.53;100.00;97628.16;106227;1275;1003401;-70
2023/01/28 05:10:51;;;;;;;60.50;21.80;;;;;;;-6.53;100.00;97633.26;106360;1275;1002839;-70
2023/01/28 05:13:20;;;;;;;39.20;16.20;;;;;;;-6.53;100.00;97641.71;106935;1275;25487;-70
2023/01/28 05:15:52;;;;;;;38.10;14.80;;;;;;;-6.54;100.00;97645.95;106284;1275;1003017;-70
2023/01/28 05:18:21;;;;;;;26.90;12.30;;;;;;;-6.54;100.00;97644.56;106270;1275;1003241;-69
2023/01/28 05:21:03;;;;;;;26.00;11.50;;;;;;;-6.55;100.00;97643.03;107009;1275;26593;-72
2023/01/28 05:23:35;;;;;;;26.00;11.00;;;;;;;-6.53;100.00;97642.44;107033;1275;24427;-69
2023/01/28 05:26:04;;;;;;;29.10;12.30;;;;;;;-6.54;100.00;97634.21;106202;1275;1003599;-69
2023/01/28 05:28:35;;;;;;;26.80;11.80;;;;;;;-6.54;100.00;97634.06;106944;1275;22537;-70
2023/01/28 05:31:05;;;;;;;84.50;28.60;;;;;;;-6.55;100.00;97629.39;106191;1276;1002894;-69
2023/01/28 05:33:34;;;;;;;46.00;17.40;;;;;;;-6.54;100.00;97634.23;107006;1276;24783;-68
2023/01/28 05:36:06;;;;;;;47.10;18.10;;;;;;;-6.53;100.00;97631.73;106165;1276;1002934;-67
2023/01/28 05:38:37;;;;;;;35.70;15.00;;;;;;;-6.52;100.00;97630.40;106193;1276;1002841;-69
2023/01/28 05:41:06;;;;;;;31.60;13.10;;;;;;;-6.52;100.00;97628.08;106135;1276;1002989;-69
2023/01/28 05:43:36;;;;;;;36.80;13.30;;;;;;;-6.51;100.00;97630.28;106117;1276;1003447;-69
2023/01/28 05:46:14;;;;;;;25.70;10.80;;;;;;;-6.50;100.00;97628.11;106173;1276;1003417;-69
2023/01/28 05:49:02;;;;;;;24.70;10.70;;;;;;;-6.48;100.00;97623.92;106866;1276;22520;-68
2023/01/28 05:51:51;;;;;;;25.30;10.80;;;;;;;-6.45;100.00;97624.46;105996;1254;1003167;-69
2023/01/28 05:54:22;;;;;;;23.50;10.60;;;;;;;-6.44;100.00;97631.05;106921;1276;24112;-69
2023/01/28 05:56:52;;;;;;;23.90;10.00;;;;;;;-6.44;100.00;97630.86;106245;1276;1002838;-68
2023/01/28 05:59:22;;;;;;;25.40;10.90;;;;;;;-6.44;100.00;97632.73;106880;1276;22574;-69
2023/01/28 06:01:57;;;;;;;27.90;11.60;;;;;;;-6.43;100.00;97636.86;106925;1276;25315;-70
2023/01/28 06:04:28;;;;;;;30.70;13.00;;;;;;;-6.44;100.00;97636.23;106132;1276;1002872;-70
2023/01/28 06:07:00;;;;;;;23.20;10.60;;;;;;;-6.44;100.00;97634.17;106914;1276;26016;-71
2023/01/28 06:09:31;;;;;;;23.90;10.30;;;;;;;-6.45;100.00;97629.82;106901;1276;26747;-69
2023/01/28 06:12:02;;;;;;;22.60;10.00;;;;;;;-6.44;100.00;97631.20;106968;1276;24228;-68
2023/01/28 06:14:37;;;;;;;28.80;10.80;;;;;;;-6.43;100.00;97629.83;106233;1276;1003023;-70
2023/01/28 06:17:11;;;;;;;26.20;10.40;;;;;;;-6.41;100.00;97629.02;106947;1276;25361;-69
2023/01/28 06:20:00;;;;;;;21.10;9.20;;;;;;;-6.41;100.00;97625.90;106890;1276;25503;-70
2023/01/28 06:22:32;;;;;;;21.70;9.30;;;;;;;-6.41;100.00;97630.44;106234;1276;1003215;-70
2023/01/28 06:25:01;;;;;;;21.20;9.80;;;;;;;-6.42;100.00;97631.89;106973;1276;23958;-68
2023/01/28 06:27:35;;;;;;;21.50;9.90;;;;;;;-6.41;100.00;97630.09;106892;1276;26062;-69
2023/01/28 06:30:05;;;;;;;23.30;10.30;;;;;;;-6.41;100.00;97632.86;106978;1275;25531;-67
2023/01/28 06:32:34;;;;;;;22.50;9.60;;;;;;;-6.37;100.00;97633.27;106178;1275;1003140;-68
2023/01/28 06:35:03;;;;;;;28.40;9.80;;;;;;;-6.31;100.00;97626.78;106216;1275;1003483;-67
2023/01/28 06:37:32;;;;;;;21.40;9.30;;;;;;;-6.24;100.00;97616.80;107030;1275;22667;-66
2023/01/28 06:40:02;;;;;;;21.60;9.20;;;;;;;-6.18;100.00;97613.09;106290;1275;1003598;-67
2023/01/28 06:42:32;;;;;;;20.90;9.40;;;;;;;-6.12;100.00;97606.46;107127;1275;22548;-67
2023/01/28 06:45:03;;;;;;;23.70;10.00;;;;;;;-6.06;100.00;97601.45;106387;1275;1002860;-66
2023/01/28 06:47:32;;;;;;;22.20;9.80;;;;;;;-5.99;100.00;97584.58;107007;1270;25508;-66
2023/01/28 06:50:03;;;;;;;21.50;9.50;;;;;;;-5.94;100.00;97576.05;107017;1273;22536;-70
2023/01/28 06:52:32;;;;;;;22.00;9.80;;;;;;;-5.91;100.00;97575.93;106256;1275;1002924;-68
2023/01/28 06:55:01;;;;;;;22.30;9.70;;;;;;;-5.87;100.00;97571.94;107086;1275;24285;-67
2023/01/28 07:12:26;;;;;;;23.30;10.30;;;;;;;-5.39;100.00;97449.19;103802;1297;1003042;-65
2023/01/28 07:14:55;;;;;;;19.70;8.70;;;;;;;-5.26;100.00;97401.73;106053;1288;200044;-66
2023/01/28 07:17:24;;;;;;;20.70;8.80;;;;;;;-5.23;100.00;97432.67;105548;1285;1002948;-66
2023/01/28 07:19:54;;;;;;;23.80;9.70;;;;;;;-5.18;100.00;97449.50;106109;1288;22700;-68
2023/01/28 07:22:26;;;;;;;21.20;9.20;;;;;;;-5.16;100.00;97466.09;105971;1282;25502;-66
2023/01/28 07:25:01;;;;;;;21.90;9.80;;;;;;;-5.14;100.00;97477.41;105352;1282;1003675;-65
2023/01/28 07:27:31;;;;;;;22.70;9.50;;;;;;;-5.15;100.00;97494.30;105607;1280;1003187;-65
2023/01/28 07:30:00;;;;;;;21.80;9.40;;;;;;;-5.18;100.00;97509.86;105534;1288;1003116;-66
2023/01/28 07:32:30;;;;;;;19.80;9.00;;;;;;;-5.18;100.00;97531.68;105327;1288;1003528;-65
2023/01/28 07:34:59;;;;;;;24.10;9.70;;;;;;;-5.20;100.00;97546.59;106064;1289;24270;-66
2023/01/28 07:37:29;;;;;;;22.20;9.80;;;;;;;-5.26;100.00;97572.09;105401;1289;1002956;-65
2023/01/28 07:39:58;;;;;;;20.30;9.20;;;;;;;-5.29;100.00;97589.02;105456;1289;1002912;-65
2023/01/28 07:42:27;;;;;;;22.00;9.70;;;;;;;-5.30;100.00;97608.23;106088;1289;25554;-66
2023/01/28 07:44:56;;;;;;;22.20;9.30;;;;;;;-5.29;100.00;97622.89;106017;1289;23925;-63
2023/01/28 07:47:26;;;;;;;21.50;9.30;;;;;;;-5.25;100.00;97630.98;105307;1289;1002863;-64
2023/01/28 07:49:55;;;;;;;22.10;9.90;;;;;;;-5.21;100.00;97637.16;106000;1289;25523;-65
2023/01/28 07:52:24;;;;;;;23.00;10.20;;;;;;;-5.21;100.00;97653.11;106661;1281;22503;-65
2023/01/28 07:54:53;;;;;;;20.10;9.00;;;;;;;-5.22;100.00;97661.81;106469;1275;25627;-65
2023/01/28 07:57:25;;;;;;;21.10;10.40;;;;;;;-5.29;100.00;97690.01;105862;1275;1003642;-65
2023/01/28 07:59:54;;;;;;;22.90;10.00;;;;;;;-5.41;100.00;97721.38;105943;1281;1003035;-64
2023/01/28 08:02:24;;;;;;;20.50;9.00;;;;;;;-5.51;100.00;97744.48;105819;1273;1003183;-65
2023/01/28 08:04:53;;;;;;;20.10;9.90;;;;;;;-5.62;100.00;97769.22;106539;1281;25650;-65
2023/01/28 08:07:23;;;;;;;24.60;9.80;;;;;;;-5.67;100.00;97788.76;105804;1281;1002883;-65
2023/01/28 08:09:52;;;;;;;25.00;10.30;;;;;;;-5.72;100.00;97816.92;106473;1281;22606;-64
2023/01/28 08:12:20;;;;;;;22.60;9.60;;;;;;;-5.78;100.00;97841.08;105890;1281;1003641;-63
2023/01/28 08:14:50;;;;;;;18.70;9.10;;;;;;;-5.85;100.00;97857.27;106507;1281;25519;-64
2023/01/28 08:17:20;;;;;;;20.90;9.30;;;;;;;-5.93;100.00;97880.48;105705;1281;1002948;-66
2023/01/28 08:19:49;;;;;;;23.20;10.40;;;;;;;-5.98;100.00;97893.42;105585;1281;1003812;-65
2023/01/28 08:22:22;;;;;;;20.80;9.90;;;;;;;-5.99;100.00;97906.81;105867;1281;1002964;-66
2023/01/28 08:24:51;;;;;;;20.90;9.50;;;;;;;-6.00;100.00;97912.15;105841;1281;1002906;-65
2023/01/28 08:27:21;;;;;;;24.00;10.20;;;;;;;-6.01;100.00;97921.72;106561;1281;25424;-65
2023/01/28 08:29:50;;;;;;;27.30;10.10;;;;;;;-6.03;100.00;97921.30;105839;1281;1002897;-73
2023/01/28 08:32:19;;;;;;;24.20;10.40;;;;;;;-6.03;100.00;97916.42;106095;1276;1003537;-72
2023/01/28 08:34:50;;;;;;;19.60;8.90;;;;;;;-6.03;100.00;97912.89;106965;1276;25575;-71
2023/01/28 08:37:23;;;;;;;23.20;9.20;;;;;;;-6.00;100.00;97912.15;106909;1276;22530;-72
2023/01/28 08:39:56;;;;;;;20.30;8.90;;;;;;;-5.98;100.00;97905.86;106112;1273;1003318;-74
2023/01/28 08:42:31;;;;;;;23.30;9.20;;;;;;;-5.94;100.00;97901.45;106186;1277;1003303;-73
2023/01/28 08:45:04;;;;;;;22.20;8.90;;;;;;;-5.87;100.00;97892.33;106104;1277;1003091;-73
2023/01/28 08:47:33;;;;;;;22.00;9.00;;;;;;;-5.80;100.00;97881.91;106922;1277;23784;-73
2023/01/28 08:50:01;;;;;;;22.40;9.60;;;;;;;-5.71;100.00;97862.85;107418;1277;25518;-72
2023/01/28 08:52:31;;;;;;;22.80;9.50;;;;;;;-5.66;100.00;97855.98;106867;1277;22523;-73
2023/01/28 08:55:00;;;;;;;25.60;10.40;;;;;;;-5.63;100.00;97846.24;106064;1277;1003058;-73
2023/01/28 08:57:30;;;;;;;22.50;9.60;;;;;;;-5.58;100.00;97836.66;106846;1277;25528;-75
2023/01/28 08:59:59;;;;;;;29.30;11.30;;;;;;;-5.48;100.00;97820.95;105833;1277;1002578;-75
2023/01/28 09:02:29;;;;;;;22.80;10.50;;;;;;;-5.38;100.00;97804.16;107617;1277;23799;-75
2023/01/28 09:05:00;;;;;;;24.20;10.30;;;;;;;-5.30;100.00;97792.30;106223;1277;1002971;-76
2023/01/28 09:07:29;;;;;;;20.80;9.10;;;;;;;-5.25;100.00;97784.46;106814;1277;26009;-75
2023/01/28 09:09:59;;;;;;;23.90;10.20;;;;;;;-5.24;100.00;97773.87;106000;1277;1003165;-75
2023/01/28 09:12:28;;;;;;;27.10;10.80;;;;;;;-5.20;100.00;97766.87;106543;1277;22560;-76
2023/01/28 09:14:57;;;;;;;25.80;11.10;;;;;;;-5.16;100.00;97755.43;106934;1277;23939;-75
2023/01/28 09:17:27;;;;;;;20.40;9.00;;;;;;;-5.11;100.00;97739.08;107414;1277;1003788;-75
2023/01/28 09:19:56;;;;;;;22.30;8.80;;;;;;;-5.06;100.00;97720.38;109480;1277;1002315;-76
2023/01/28 09:22:28;;;;;;;23.10;9.60;;;;;;;-5.02;100.00;97705.42;106816;1277;23905;-76
2023/01/28 09:24:58;;;;;;;21.20;9.50;;;;;;;-4.98;100.00;97702.45;106966;1276;22540;-74
2023/01/28 09:27:27;;;;;;;21.70;9.90;;;;;;;-4.94;100.00;97694.98;107427;1276;25575;-76
2023/01/28 09:29:56;;;;;;;20.90;9.60;;;;;;;-4.92;100.00;97691.41;106993;1270;22704;-78
2023/01/28 09:32:25;;;;;;;22.50;9.90;;;;;;;-4.91;100.00;97686.75;107135;1273;22612;-77
2023/01/28 09:34:54;;;;;;;23.50;9.90;;;;;;;-4.91;100.00;97679.56;106918;1274;26502;-77
2023/01/28 09:37:24;;;;;;;21.20;9.10;;;;;;;-4.93;100.00;97682.21;106149;1270;1003546;-77
2023/01/28 09:39:52;;;;;;;22.00;9.60;;;;;;;-4.93;100.00;97678.49;106814;1274;22522;-79
2023/01/28 09:42:38;;;;;;;25.80;9.50;;;;;;;-4.87;100.00;97672.70;106234;1273;1002578;-77
2023/01/28 09:45:14;;;;;;;27.30;9.60;;;;;;;-4.82;100.00;97663.79;108580;1276;22189;-77
2023/01/28 09:47:52;;;;;;;29.30;11.40;;;;;;;-4.77;100.00;97652.15;108863;1273;1002329;-66
2023/01/28 09:50:33;;;;;;;23.70;9.90;;;;;;;-4.70;100.00;97644.05;106659;1273;24259;-69
2023/01/28 09:53:07;;;;;;;21.10;8.90;;;;;;;-4.65;100.00;97633.85;106579;1274;23483;-68
2023/01/28 09:55:40;;;;;;;19.90;8.50;;;;;;;-4.56;100.00;97624.32;105928;1270;1003309;-65
2023/01/28 09:58:11;;;;;;;25.80;10.90;;;;;;;-4.50;100.00;97619.09;106753;1273;22530;-66
2023/01/28 10:00:57;;;;;;;23.20;9.50;;;;;;;-4.45;100.00;97603.99;105985;1271;1003563;-68
2023/01/28 10:04:08;;;;;;;22.70;9.80;;;;;;;-4.39;100.00;97590.42;105831;1271;1002877;-68
2023/01/28 10:07:11;;;;;;;22.10;8.40;;;;;;;-4.34;100.00;97574.91;106270;1276;1003457;-75
2023/01/28 10:10:16;;;;;;;22.00;9.50;;;;;;;-4.27;100.00;97563.74;106464;1276;1003024;-78
2023/01/28 10:13:05;;;;;;;24.50;9.20;;;;;;;-4.22;100.00;97553.92;107557;1276;1003033;-76
2023/01/28 10:15:38;;;;;;;26.30;10.20;;;;;;;-4.21;100.00;97550.15;106782;1277;1003258;-78
2023/01/28 10:18:10;;;;;;;25.10;10.00;;;;;;;-4.21;100.00;97544.66;107480;1273;22696;-77
2023/01/28 10:32:10;;;;;;;26.40;11.20;;;;;;;-3.66;100.00;97395.61;104923;1299;557883;-80
2023/01/28 10:34:39;;;;;;;26.10;10.70;;;;;;;-3.50;100.00;97338.66;106106;1288;470966;-78
2023/01/28 10:37:11;;;;;;;22.30;9.30;;;;;;;-3.53;100.00;97377.99;106275;1283;25304;-79
2023/01/28 10:39:40;;;;;;;22.30;9.90;;;;;;;-3.55;100.00;97404.09;106737;1287;22581;-76
2023/01/28 10:42:36;;;;;;;24.90;9.70;;;;;;;-3.60;100.00;97424.15;106848;1288;25889;-77
2023/01/28 10:45:18;;;;;;;25.30;10.70;;;;;;;-3.67;100.00;97441.68;106642;1288;25941;-79
2023/01/28 10:48:00;;;;;;;21.90;8.60;;;;;;;-3.72;100.00;97462.94;106137;1288;1003491;-78
2023/01/28 10:50:30;;;;;;;20.80;9.20;;;;;;;-3.74;100.00;97479.68;106798;1280;25323;-79
2023/01/28 10:53:01;;;;;;;22.30;8.70;;;;;;;-3.74;100.00;97493.73;107102;1281;25530;-81
2023/01/28 10:55:58;;;;;;;21.30;9.50;;;;;;;-3.72;100.00;97497.25;107324;1281;22556;-77
2023/01/28 10:58:28;;;;;;;21.50;8.60;;;;;;;-3.74;100.00;97499.89;106538;1281;1002678;-79
2023/01/28 11:01:02;;;;;;;23.80;9.80;;;;;;;-3.74;100.00;97508.69;107106;1281;22754;-77
2023/01/28 11:03:31;;;;;;;21.30;9.50;;;;;;;-3.70;100.00;97515.89;107088;1281;22540;-79
2023/01/28 11:06:00;;;;;;;21.60;8.90;;;;;;;-3.72;100.00;97528.58;106324;1281;1002967;-78
2023/01/28 11:08:30;;;;;;;26.30;9.40;;;;;;;-3.76;100.00;97541.67;106151;1281;1003073;-78
2023/01/28 11:11:00;;;;;;;18.60;8.20;;;;;;;-3.74;100.00;97544.25;106475;1281;1005311;-78
2023/01/28 11:13:29;;;;;;;26.70;10.20;;;;;;;-3.72;100.00;97549.77;107300;1281;23675;-78
2023/01/28 11:16:02;;;;;;;27.20;12.50;;;;;;;-3.70;100.00;97553.79;107122;1281;24360;-77
2023/01/28 11:18:32;;;;;;;;;;;;;;;-3.68;100.00;97552.50;107321;1281;25404;-77
2023/01/28 11:21:03;;;;;;;21.90;8.50;;;;;;;-3.66;100.00;97556.52;106321;1281;1003697;-77
2023/01/28 11:23:46;;;;;;;19.40;8.30;;;;;;;-3.66;100.00;97563.84;107224;1281;22475;-78
2023/01/28 11:26:16;;;;;;;;;;;;;;;-3.69;100.00;97565.99;107304;1281;22514;-77
2023/01/28 11:28:47;;;;;;;15.60;7.60;;;;;;;-3.70;100.00;97574.36;106939;1281;25895;-77
2023/01/28 11:31:16;;;;;;;23.90;10.80;;;;;;;-3.70;100.00;97577.70;106975;1281;26534;-78
2023/01/28 11:33:52;;;;;;;21.90;9.50;;;;;;;-3.65;100.00;97573.53;106267;1281;1003199;-78
2023/01/28 11:36:28;;;;;;;23.50;9.60;;;;;;;-3.60;100.00;97570.70;107016;1281;25316;-78
2023/01/28 11:38:59;;;;;;;24.60;9.40;;;;;;;-3.57;100.00;97573.23;106319;1281;1003809;-78
2023/01/28 11:41:35;;;;;;;19.70;8.30;;;;;;;-3.58;100.00;97582.09;106468;1281;1003166;-78
2023/01/28 11:44:13;;;;;;;19.00;9.00;;;;;;;-3.59;100.00;97590.13;106541;1282;1002637;-78
2023/01/28 11:46:59;;;;;;;20.10;9.20;;;;;;;-3.60;100.00;97592.65;106759;1282;1002987;-76
2023/01/28 11:50:01;;;;;;;23.80;8.60;;;;;;;-3.61;100.00;97589.41;106301;1282;1003068;-77
2023/01/28 11:52:46;;;;;;;21.70;8.80;;;;;;;-3.59;100.00;97588.38;107116;1276;26720;-77
2023/01/28 11:55:56;;;;;;;24.40;9.10;;;;;;;-3.55;100.00;97586.89;107469;1281;25447;-77
2023/01/28 11:58:40;;;;;;;20.40;8.30;;;;;;;-3.53;100.00;97586.92;107156;1281;23790;-77
2023/01/28 12:01:31;;;;;;;21.10;8.20;;;;;;;-3.50;100.00;97590.47;106308;1281;1003444;-77
2023/01/28 12:04:20;;;;;;;21.60;8.50;;;;;;;-3.47;100.00;97591.05;106995;1281;25268;-78
2023/01/28 12:07:25;;;;;;;20.40;8.90;;;;;;;-3.41;100.00;97593.35;107171;1281;22553;-77
2023/01/28 12:10:07;;;;;;;25.40;11.00;;;;;;;-3.36;100.00;97585.52;106270;1281;1003048;-78
2023/01/28 12:12:42;;;;;;;19.70;8.90;;;;;;;-3.33;100.00;97582.92;106988;1281;25323;-78
2023/01/28 12:15:20;;;;;;;21.00;8.40;;;;;;;-3.30;100.00;97583.35;107030;1280;25604;-76
2023/01/28 12:18:17;;;;;;;19.50;8.30;;;;;;;-3.27;100.00;97581.65;105928;1281;1002840;-68
2023/01/28 12:20:52;;;;;;;;;;;;;;;-3.24;100.00;97584.52;105821;1281;1003538;-68
2023/01/28 12:23:31;;;;;;;18.40;7.70;;;;;;;-3.21;100.00;97590.95;106820;1281;24218;-71
2023/01/28 12:26:13;;;;;;;20.70;8.50;;;;;;;-3.18;100.00;97594.09;106796;1281;25259;-69